sensor_id;sensor_type;location;lat;lon;timestamp;temperature;humidity
30250;DHT22;17064;47.974;13.826;2022-08-25T03:00:36;14.00;99.90
30250;DHT22;17064;47.974;13.826;2022-08-25T03:05:57;14.00;99.90
30250;DHT22;17064;47.974;13.826;2022-08-25T03:11:19;13.90;99.90
30250;DHT22;17064;47.974;13.826;2022-08-25T03:16:40;13.80;99.90
30250;DHT22;17064;47.974;13.826;2022-08-25T03:22:02;13.80;99.90
30250;DHT22;17064;47.974;13.826;2022-08-25T03:27:23;13.80;99.90
30250;DHT22;17064;47.974;13.826;2022-08-25T03:32:44;13.80;99.90
30250;DHT22;17064;47.974;13.826;2022-08-25T03:38:05;13.80;99.90
30250;DHT22;17064;47.974;13.826;2022-08-25T03:43:27;13.70;99.90
30250;DHT22;17064;47.974;13.826;2022-08-25T03:48:48;13.70;99.90
30250;DHT22;17064;47.974;13.826;2022-08-25T03:54:10;13.70;99.90
30250;DHT22;17064;47.974;13.826;2022-08-25T03:59:31;13.80;99.90
30250;DHT22;17064;47.974;13.826;2022-08-25T04:04:52;13.80;99.90
30250;DHT22;17064;47.974;13.826;2022-08-25T04:10:13;13.80;99.90
30250;DHT22;17064;47.974;13.826;2022-08-25T04:15:34;13.80;99.90
30250;DHT22;17064;47.974;13.826;2022-08-25T04:21:03;13.80;99.90
30250;DHT22;17064;47.974;13.826;2022-08-25T04:26:49;13.80;99.90
30250;DHT22;17064;47.974;13.826;2022-08-25T04:32:08;13.80;99.90
30250;DHT22;17064;47.974;13.826;2022-08-25T04:37:29;13.80;99.90
30250;DHT22;17064;47.974;13.826;2022-08-25T04:42:50;13.80;99.90
30250;DHT22;17064;47.974;13.826;2022-08-25T04:48:11;13.90;99.90
30250;DHT22;17064;47.974;13.826;2022-08-25T04:53:33;13.90;99.90
30250;DHT22;17064;47.974;13.826;2022-08-25T04:58:55;14.00;99.90
30250;DHT22;17064;47.974;13.826;2022-08-25T05:04:20;14.10;99.90
30250;DHT22;17064;47.974;13.826;2022-08-25T05:09:41;14.20;99.90
30250;DHT22;17064;47.974;13.826;2022-08-25T05:15:02;14.40;99.90
30250;DHT22;17064;47.974;13.826;2022-08-25T05:20:43;14.60;99.90
30250;DHT22;17064;47.974;13.826;2022-08-25T05:26:07;14.80;99.90
30250;DHT22;17064;47.974;13.826;2022-08-25T05:31:29;14.90;99.90
30250;DHT22;17064;47.974;13.826;2022-08-25T05:36:50;15.10;99.90
30250;DHT22;17064;47.974;13.826;2022-08-25T05:42:14;15.30;99.90
30250;DHT22;17064;47.974;13.826;2022-08-25T05:47:38;15.50;99.90
30250;DHT22;17064;47.974;13.826;2022-08-25T05:53:01;15.70;99.90
30250;DHT22;17064;47.974;13.826;2022-08-25T05:58:23;16.00;99.90
30250;DHT22;17064;47.974;13.826;2022-08-25T06:03:44;16.20;99.90
30250;DHT22;17064;47.974;13.826;2022-08-25T06:09:08;16.40;99.90
30250;DHT22;17064;47.974;13.826;2022-08-25T06:14:29;16.60;99.90
30250;DHT22;17064;47.974;13.826;2022-08-25T06:19:52;16.80;99.90
30250;DHT22;17064;47.974;13.826;2022-08-25T06:25:24;17.00;99.90
30250;DHT22;17064;47.974;13.826;2022-08-25T06:31:04;17.20;99.90
30250;DHT22;17064;47.974;13.826;2022-08-25T06:36:48;17.30;99.90
30250;DHT22;17064;47.974;13.826;2022-08-25T06:42:15;17.40;99.90
30250;DHT22;17064;47.974;13.826;2022-08-25T06:47:36;17.60;99.90
30250;DHT22;17064;47.974;13.826;2022-08-25T06:52:57;17.80;99.90
30250;DHT22;17064;47.974;13.826;2022-08-25T06:58:18;18.20;99.90
30250;DHT22;17064;47.974;13.826;2022-08-25T07:03:40;18.50;99.90
30250;DHT22;17064;47.974;13.826;2022-08-25T07:09:19;18.70;99.90
30250;DHT22;17064;47.974;13.826;2022-08-25T07:14:41;19.00;99.90
30250;DHT22;17064;47.974;13.826;2022-08-25T07:26:11;19.60;99.90
30250;DHT22;17064;47.974;13.826;2022-08-25T07:31:32;19.90;99.90
30250;DHT22;17064;47.974;13.826;2022-08-25T07:36:55;20.20;99.90
30250;DHT22;17064;47.974;13.826;2022-08-25T07:42:16;20.50;99.90
30250;DHT22;17064;47.974;13.826;2022-08-25T07:47:38;20.70;99.90
30250;DHT22;17064;47.974;13.826;2022-08-25T07:52:59;21.10;99.90
30250;DHT22;17064;47.974;13.826;2022-08-25T07:58:20;21.40;99.90
30250;DHT22;17064;47.974;13.826;2022-08-25T08:03:41;21.80;99.90
30250;DHT22;17064;47.974;13.826;2022-08-25T08:09:02;22.20;99.90
30250;DHT22;17064;47.974;13.826;2022-08-25T08:14:23;22.60;99.90
30250;DHT22;17064;47.974;13.826;2022-08-25T08:19:44;22.90;99.90
30250;DHT22;17064;47.974;13.826;2022-08-25T08:25:07;23.00;99.90
30250;DHT22;17064;47.974;13.826;2022-08-25T08:30:28;23.40;99.90
30250;DHT22;17064;47.974;13.826;2022-08-25T08:36:00;23.50;99.90
30250;DHT22;17064;47.974;13.826;2022-08-25T08:49:00;23.40;99.90
30250;DHT22;17064;47.974;13.826;2022-08-25T08:54:13;23.70;99.90
30250;DHT22;17064;47.974;13.826;2022-08-25T08:59:56;23.80;99.90
30250;DHT22;17064;47.974;13.826;2022-08-25T09:05:21;23.40;99.90
30250;DHT22;17064;47.974;13.826;2022-08-25T09:11:06;23.50;99.90
30250;DHT22;17064;47.974;13.826;2022-08-25T09:16:54;24.10;99.90
30250;DHT22;17064;47.974;13.826;2022-08-25T09:33:47;24.20;99.90
30250;DHT22;17064;47.974;13.826;2022-08-25T09:39:08;24.20;99.90
30250;DHT22;17064;47.974;13.826;2022-08-25T09:44:43;24.80;99.90
30250;DHT22;17064;47.974;13.826;2022-08-25T09:50:05;25.10;99.90
30250;DHT22;17064;47.974;13.826;2022-08-25T09:55:34;24.80;99.90
30250;DHT22;17064;47.974;13.826;2022-08-25T10:06:29;24.40;99.90
30250;DHT22;17064;47.974;13.826;2022-08-25T10:11:50;24.20;99.90
30250;DHT22;17064;47.974;13.826;2022-08-25T10:17:23;24.30;99.90
30250;DHT22;17064;47.974;13.826;2022-08-25T10:22:47;24.80;99.90
30250;DHT22;17064;47.974;13.826;2022-08-25T10:39:27;26.90;99.90
30250;DHT22;17064;47.974;13.826;2022-08-25T10:45:06;27.10;99.90
30250;DHT22;17064;47.974;13.826;2022-08-25T11:02:01;26.50;99.90
30250;DHT22;17064;47.974;13.826;2022-08-25T11:07:36;26.50;99.90
30250;DHT22;17064;47.974;13.826;2022-08-25T11:13:02;26.50;99.90
30250;DHT22;17064;47.974;13.826;2022-08-25T11:18:28;26.50;99.90
30250;DHT22;17064;47.974;13.826;2022-08-25T11:24:02;26.50;99.90
30250;DHT22;17064;47.974;13.826;2022-08-25T11:29:32;26.90;99.90
30250;DHT22;17064;47.974;13.826;2022-08-25T11:34:55;26.80;99.90
30250;DHT22;17064;47.974;13.826;2022-08-25T11:40:37;26.60;99.90
30250;DHT22;17064;47.974;13.826;2022-08-25T11:46:19;26.60;99.90
30250;DHT22;17064;47.974;13.826;2022-08-25T11:51:46;26.80;99.90
30250;DHT22;17064;47.974;13.826;2022-08-25T11:57:08;27.20;99.90
30250;DHT22;17064;47.974;13.826;2022-08-25T12:02:48;27.60;99.90
30250;DHT22;17064;47.974;13.826;2022-08-25T12:08:10;27.50;99.90
30250;DHT22;17064;47.974;13.826;2022-08-25T12:13:50;27.40;99.90
30250;DHT22;17064;47.974;13.826;2022-08-25T12:25:00;26.80;99.90
30250;DHT22;17064;47.974;13.826;2022-08-25T12:30:37;26.80;99.90
30250;DHT22;17064;47.974;13.826;2022-08-25T12:36:04;26.90;99.90
30250;DHT22;17064;47.974;13.826;2022-08-25T12:41:26;26.90;99.90
30250;DHT22;17064;47.974;13.826;2022-08-25T12:47:26;27.00;99.90
30250;DHT22;17064;47.974;13.826;2022-08-25T12:52:47;27.30;99.90
30250;DHT22;17064;47.974;13.826;2022-08-25T12:58:08;27.50;99.90
30250;DHT22;17064;47.974;13.826;2022-08-25T13:03:42;27.70;99.90
30250;DHT22;17064;47.974;13.826;2022-08-25T13:15:03;27.80;99.80
30250;DHT22;17064;47.974;13.826;2022-08-25T13:20:26;27.80;99.90
30250;DHT22;17064;47.974;13.826;2022-08-25T13:25:51;27.30;98.90
30250;DHT22;17064;47.974;13.826;2022-08-25T13:31:18;26.60;99.90
30250;DHT22;17064;47.974;13.826;2022-08-25T13:36:43;26.60;99.90
30250;DHT22;17064;47.974;13.826;2022-08-25T13:42:23;26.90;99.90
30250;DHT22;17064;47.974;13.826;2022-08-25T13:47:45;27.00;99.90
30250;DHT22;17064;47.974;13.826;2022-08-25T13:53:22;27.10;99.90
30250;DHT22;17064;47.974;13.826;2022-08-25T13:58:44;26.90;99.90
30250;DHT22;17064;47.974;13.826;2022-08-25T14:09:55;26.50;99.90
30250;DHT22;17064;47.974;13.826;2022-08-25T14:20:49;25.80;99.90
30250;DHT22;17064;47.974;13.826;2022-08-25T14:26:11;25.50;99.90
30250;DHT22;17064;47.974;13.826;2022-08-25T14:31:35;25.50;99.90
30250;DHT22;17064;47.974;13.826;2022-08-25T14:36:59;25.40;99.90
30250;DHT22;17064;47.974;13.826;2022-08-25T14:42:20;25.50;99.90
30250;DHT22;17064;47.974;13.826;2022-08-25T14:47:42;25.50;99.90
30250;DHT22;17064;47.974;13.826;2022-08-25T14:53:04;25.70;99.90
30250;DHT22;17064;47.974;13.826;2022-08-25T14:58:26;25.90;99.90
30250;DHT22;17064;47.974;13.826;2022-08-25T15:03:47;25.90;99.90
30250;DHT22;17064;47.974;13.826;2022-08-25T15:09:12;25.80;99.90
30250;DHT22;17064;47.974;13.826;2022-08-25T15:14:35;25.80;99.90
30250;DHT22;17064;47.974;13.826;2022-08-25T15:19:57;25.70;99.90
30250;DHT22;17064;47.974;13.826;2022-08-25T15:25:18;25.50;99.90
30250;DHT22;17064;47.974;13.826;2022-08-25T15:30:41;25.20;99.90
30250;DHT22;17064;47.974;13.826;2022-08-25T15:36:02;25.00;99.90
30250;DHT22;17064;47.974;13.826;2022-08-25T15:41:23;25.00;99.90
30250;DHT22;17064;47.974;13.826;2022-08-25T15:46:45;24.90;99.90
30250;DHT22;17064;47.974;13.826;2022-08-25T15:52:06;24.90;99.90
30250;DHT22;17064;47.974;13.826;2022-08-25T15:57:27;24.80;99.90
30250;DHT22;17064;47.974;13.826;2022-08-25T16:02:48;24.80;99.90
30250;DHT22;17064;47.974;13.826;2022-08-25T16:08:10;24.80;99.90
30250;DHT22;17064;47.974;13.826;2022-08-25T16:13:31;24.70;99.90
30250;DHT22;17064;47.974;13.826;2022-08-25T16:18:53;24.50;99.90
30250;DHT22;17064;47.974;13.826;2022-08-25T16:24:14;24.40;99.90
30250;DHT22;17064;47.974;13.826;2022-08-25T16:29:35;24.30;99.90
30250;DHT22;17064;47.974;13.826;2022-08-25T16:34:57;24.20;99.90
30250;DHT22;17064;47.974;13.826;2022-08-25T16:40:21;24.20;99.90
30250;DHT22;17064;47.974;13.826;2022-08-25T16:45:45;24.10;99.90
30250;DHT22;17064;47.974;13.826;2022-08-25T16:51:08;24.00;99.90
30250;DHT22;17064;47.974;13.826;2022-08-25T16:56:32;23.90;99.90
30250;DHT22;17064;47.974;13.826;2022-08-25T17:01:54;23.70;99.90
30250;DHT22;17064;47.974;13.826;2022-08-25T17:07:15;23.60;99.90
30250;DHT22;17064;47.974;13.826;2022-08-25T17:12:36;23.40;99.90
30250;DHT22;17064;47.974;13.826;2022-08-25T17:17:59;23.20;99.90
30250;DHT22;17064;47.974;13.826;2022-08-25T17:23:20;23.00;99.90
30250;DHT22;17064;47.974;13.826;2022-08-25T17:28:42;22.90;99.90
30250;DHT22;17064;47.974;13.826;2022-08-25T17:34:03;22.70;99.90
30250;DHT22;17064;47.974;13.826;2022-08-25T17:39:25;22.60;99.90
30250;DHT22;17064;47.974;13.826;2022-08-25T17:44:46;22.50;99.90
30250;DHT22;17064;47.974;13.826;2022-08-25T17:50:07;22.30;99.90
30250;DHT22;17064;47.974;13.826;2022-08-25T17:55:28;22.20;99.90
30250;DHT22;17064;47.974;13.826;2022-08-25T18:00:49;22.10;99.90
30250;DHT22;17064;47.974;13.826;2022-08-25T18:06:12;21.90;99.90
30250;DHT22;17064;47.974;13.826;2022-08-25T18:11:34;21.80;99.90
30250;DHT22;17064;47.974;13.826;2022-08-25T18:16:55;21.70;99.90
30250;DHT22;17064;47.974;13.826;2022-08-25T18:22:16;21.60;99.90
30250;DHT22;17064;47.974;13.826;2022-08-25T18:27:37;21.40;99.90
30250;DHT22;17064;47.974;13.826;2022-08-25T18:32:59;21.30;99.90
30250;DHT22;17064;47.974;13.826;2022-08-25T18:38:20;21.10;99.90
30250;DHT22;17064;47.974;13.826;2022-08-25T18:43:59;21.00;99.90
30250;DHT22;17064;47.974;13.826;2022-08-25T18:49:20;20.90;99.90
30250;DHT22;17064;47.974;13.826;2022-08-25T18:54:41;20.80;99.90
30250;DHT22;17064;47.974;13.826;2022-08-25T19:00:05;20.70;99.90
30250;DHT22;17064;47.974;13.826;2022-08-25T19:05:33;20.50;99.90
30250;DHT22;17064;47.974;13.826;2022-08-25T19:10:57;20.40;99.90
30250;DHT22;17064;47.974;13.826;2022-08-25T19:16:38;20.30;99.90
30250;DHT22;17064;47.974;13.826;2022-08-25T19:21:59;20.20;99.90
30250;DHT22;17064;47.974;13.826;2022-08-25T19:27:20;20.10;99.90
30250;DHT22;17064;47.974;13.826;2022-08-25T19:32:43;20.00;99.90
30250;DHT22;17064;47.974;13.826;2022-08-25T19:38:07;19.90;99.90
30250;DHT22;17064;47.974;13.826;2022-08-25T19:43:28;19.90;99.90
30250;DHT22;17064;47.974;13.826;2022-08-25T19:48:49;19.80;99.90
30250;DHT22;17064;47.974;13.826;2022-08-25T19:54:15;19.70;99.90
30250;DHT22;17064;47.974;13.826;2022-08-25T19:59:39;19.70;99.90
30250;DHT22;17064;47.974;13.826;2022-08-25T20:05:00;19.60;99.90
30250;DHT22;17064;47.974;13.826;2022-08-25T20:10:24;19.60;99.90
30250;DHT22;17064;47.974;13.826;2022-08-25T20:15:46;19.50;99.90
30250;DHT22;17064;47.974;13.826;2022-08-25T20:21:07;19.50;99.90
30250;DHT22;17064;47.974;13.826;2022-08-25T20:26:28;19.40;99.90
30250;DHT22;17064;47.974;13.826;2022-08-25T20:31:49;19.30;99.90
30250;DHT22;17064;47.974;13.826;2022-08-25T20:37:10;19.30;99.90
30250;DHT22;17064;47.974;13.826;2022-08-25T20:42:32;19.20;99.90
30250;DHT22;17064;47.974;13.826;2022-08-25T20:47:54;19.20;99.90
30250;DHT22;17064;47.974;13.826;2022-08-25T20:53:19;19.20;99.90
30250;DHT22;17064;47.974;13.826;2022-08-25T20:58:40;19.10;99.90
30250;DHT22;17064;47.974;13.826;2022-08-25T21:04:07;19.00;99.90
30250;DHT22;17064;47.974;13.826;2022-08-25T21:09:28;19.10;99.90
30250;DHT22;17064;47.974;13.826;2022-08-25T21:14:49;19.00;99.90
30250;DHT22;17064;47.974;13.826;2022-08-25T21:20:11;19.00;99.90
30250;DHT22;17064;47.974;13.826;2022-08-25T21:25:40;19.00;99.90
30250;DHT22;17064;47.974;13.826;2022-08-25T21:31:05;18.90;99.90
30250;DHT22;17064;47.974;13.826;2022-08-25T21:36:28;18.90;99.90
30250;DHT22;17064;47.974;13.826;2022-08-25T21:41:49;18.90;99.90
30250;DHT22;17064;47.974;13.826;2022-08-25T21:47:10;18.90;99.90
30250;DHT22;17064;47.974;13.826;2022-08-25T21:52:32;18.90;99.90
30250;DHT22;17064;47.974;13.826;2022-08-25T21:57:53;18.90;99.90
30250;DHT22;17064;47.974;13.826;2022-08-25T22:03:14;18.80;99.90
30250;DHT22;17064;47.974;13.826;2022-08-25T22:08:36;18.80;99.90
30250;DHT22;17064;47.974;13.826;2022-08-25T22:13:58;18.80;99.90
30250;DHT22;17064;47.974;13.826;2022-08-25T22:19:21;18.80;99.90
30250;DHT22;17064;47.974;13.826;2022-08-25T22:24:42;18.80;99.90
30250;DHT22;17064;47.974;13.826;2022-08-25T22:30:04;18.80;99.90
30250;DHT22;17064;47.974;13.826;2022-08-25T22:35:26;18.80;99.90
30250;DHT22;17064;47.974;13.826;2022-08-25T22:40:47;18.80;99.90
30250;DHT22;17064;47.974;13.826;2022-08-25T22:46:09;18.70;99.90
30250;DHT22;17064;47.974;13.826;2022-08-25T22:51:30;18.60;99.90
30250;DHT22;17064;47.974;13.826;2022-08-25T22:56:51;18.60;99.90
30250;DHT22;17064;47.974;13.826;2022-08-25T23:02:13;18.50;99.90
30250;DHT22;17064;47.974;13.826;2022-08-25T23:07:34;18.50;99.90
30250;DHT22;17064;47.974;13.826;2022-08-25T23:12:56;18.50;99.90
30250;DHT22;17064;47.974;13.826;2022-08-25T23:18:18;18.40;99.90
30250;DHT22;17064;47.974;13.826;2022-08-25T23:23:39;18.40;99.90
30250;DHT22;17064;47.974;13.826;2022-08-25T23:29:02;18.30;99.90
30250;DHT22;17064;47.974;13.826;2022-08-25T23:34:24;18.30;99.90
30250;DHT22;17064;47.974;13.826;2022-08-25T23:39:45;18.20;99.90
30250;DHT22;17064;47.974;13.826;2022-08-25T23:45:07;18.20;99.90
30250;DHT22;17064;47.974;13.826;2022-08-25T23:50:29;18.20;99.90
30250;DHT22;17064;47.974;13.826;2022-08-25T23:55:50;18.20;99.90
